Edgarton, West Virginia
Current Conditions -  °F | °C
As of 1:15 PM on Thursday 27 Nov 2014 (Local Time) from KPBX Reporting Station
Overcast Overcast  
Wind Chill: 24°   Ceiling: 2000
Heat Index: 32°   Visibility: 10mi
Dew Point: 26°   Wind: 9mph
Humidity: 78%   Direction: 270°W
Pressure: 30.2"   Gusts: NA
Location:  37.57°N, 82.14°W
Report Text: KPBX 271815Z AUTO 27008KT 10SM OVC020 00/M04 A3020 RMK AO2 T10011036
Loading
Personal Weather Stations






























Interactive Weather Map New forecast layout! Learn more

10-Day Weather Forecast

Advertisements
Track Severe Weather on mobile